sensor_id;sensor_type;location;lat;lon;timestamp;temperature;humidity
7167;DHT22;3625;51.762;14.320;2023-04-01T00:01:19;9.60;99.90
7167;DHT22;3625;51.762;14.320;2023-04-01T00:03:49;9.60;99.90
7167;DHT22;3625;51.762;14.320;2023-04-01T00:06:18;9.60;99.90
7167;DHT22;3625;51.762;14.320;2023-04-01T00:08:47;9.60;99.90
7167;DHT22;3625;51.762;14.320;2023-04-01T00:11:16;9.70;99.90
7167;DHT22;3625;51.762;14.320;2023-04-01T00:13:46;9.60;99.90
7167;DHT22;3625;51.762;14.320;2023-04-01T00:16:15;9.70;99.90
7167;DHT22;3625;51.762;14.320;2023-04-01T00:18:50;9.70;99.90
7167;DHT22;3625;51.762;14.320;2023-04-01T00:21:20;9.70;99.90
7167;DHT22;3625;51.762;14.320;2023-04-01T00:23:51;9.70;99.90
7167;DHT22;3625;51.762;14.320;2023-04-01T00:26:20;9.70;99.90
7167;DHT22;3625;51.762;14.320;2023-04-01T00:28:49;9.70;99.90
7167;DHT22;3625;51.762;14.320;2023-04-01T00:31:18;9.70;99.90
7167;DHT22;3625;51.762;14.320;2023-04-01T00:33:47;9.70;99.90
7167;DHT22;3625;51.762;14.320;2023-04-01T00:36:19;9.70;99.90
7167;DHT22;3625;51.762;14.320;2023-04-01T00:38:50;9.70;99.90
7167;DHT22;3625;51.762;14.320;2023-04-01T00:41:20;9.70;99.90
7167;DHT22;3625;51.762;14.320;2023-04-01T00:43:50;9.70;99.90
7167;DHT22;3625;51.762;14.320;2023-04-01T00:48:51;9.80;99.90
7167;DHT22;3625;51.762;14.320;2023-04-01T00:51:25;9.70;99.90
7167;DHT22;3625;51.762;14.320;2023-04-01T00:53:58;9.70;99.90
7167;DHT22;3625;51.762;14.320;2023-04-01T00:56:33;9.70;99.90
7167;DHT22;3625;51.762;14.320;2023-04-01T00:59:06;9.80;99.90
7167;DHT22;3625;51.762;14.320;2023-04-01T01:01:38;9.80;99.90
7167;DHT22;3625;51.762;14.320;2023-04-01T01:04:19;9.80;99.90
7167;DHT22;3625;51.762;14.320;2023-04-01T01:06:57;9.80;99.90
7167;DHT22;3625;51.762;14.320;2023-04-01T01:09:40;9.80;99.90
7167;DHT22;3625;51.762;14.320;2023-04-01T01:12:18;9.80;99.90
7167;DHT22;3625;51.762;14.320;2023-04-01T01:14:57;9.80;99.90
7167;DHT22;3625;51.762;14.320;2023-04-01T01:17:38;9.80;99.90
7167;DHT22;3625;51.762;14.320;2023-04-01T01:20:42;9.70;99.90
7167;DHT22;3625;51.762;14.320;2023-04-01T01:27:02;9.70;99.90
7167;DHT22;3625;51.762;14.320;2023-04-01T01:30:03;9.70;99.90
7167;DHT22;3625;51.762;14.320;2023-04-01T01:33:01;9.60;99.90
7167;DHT22;3625;51.762;14.320;2023-04-01T01:35:45;9.60;99.90
7167;DHT22;3625;51.762;14.320;2023-04-01T01:38:21;9.60;99.90
7167;DHT22;3625;51.762;14.320;2023-04-01T01:41:00;9.60;99.90
7167;DHT22;3625;51.762;14.320;2023-04-01T01:43:35;9.60;99.90
7167;DHT22;3625;51.762;14.320;2023-04-01T01:46:09;9.50;99.90
7167;DHT22;3625;51.762;14.320;2023-04-01T01:48:42;9.50;99.90
7167;DHT22;3625;51.762;14.320;2023-04-01T01:51:13;9.50;99.90
7167;DHT22;3625;51.762;14.320;2023-04-01T01:53:43;9.50;99.90
7167;DHT22;3625;51.762;14.320;2023-04-01T01:56:13;9.50;99.90
7167;DHT22;3625;51.762;14.320;2023-04-01T01:58:44;9.50;99.90
7167;DHT22;3625;51.762;14.320;2023-04-01T02:01:22;9.50;99.90
7167;DHT22;3625;51.762;14.320;2023-04-01T02:03:58;9.50;99.90
7167;DHT22;3625;51.762;14.320;2023-04-01T02:06:32;9.50;99.90
7167;DHT22;3625;51.762;14.320;2023-04-01T02:09:06;9.50;99.90
7167;DHT22;3625;51.762;14.320;2023-04-01T02:11:41;10.20;99.90
7167;DHT22;3625;51.762;14.320;2023-04-01T02:14:15;9.50;99.90
7167;DHT22;3625;51.762;14.320;2023-04-01T02:16:49;9.50;99.90
7167;DHT22;3625;51.762;14.320;2023-04-01T02:19:22;9.50;99.90
7167;DHT22;3625;51.762;14.320;2023-04-01T02:22:01;9.50;99.90
7167;DHT22;3625;51.762;14.320;2023-04-01T02:24:33;9.50;99.90
7167;DHT22;3625;51.762;14.320;2023-04-01T02:27:04;9.50;99.90
7167;DHT22;3625;51.762;14.320;2023-04-01T02:29:33;9.50;99.90
7167;DHT22;3625;51.762;14.320;2023-04-01T02:32:07;9.50;99.90
7167;DHT22;3625;51.762;14.320;2023-04-01T02:34:38;9.60;99.90
7167;DHT22;3625;51.762;14.320;2023-04-01T02:37:08;9.60;99.90
7167;DHT22;3625;51.762;14.320;2023-04-01T02:39:38;9.60;99.90
7167;DHT22;3625;51.762;14.320;2023-04-01T02:42:12;9.60;99.90
7167;DHT22;3625;51.762;14.320;2023-04-01T02:44:41;9.60;99.90
7167;DHT22;3625;51.762;14.320;2023-04-01T02:47:09;9.60;99.90
7167;DHT22;3625;51.762;14.320;2023-04-01T02:49:38;9.50;99.90
7167;DHT22;3625;51.762;14.320;2023-04-01T02:52:08;9.50;99.90
7167;DHT22;3625;51.762;14.320;2023-04-01T02:54:36;9.50;99.90
7167;DHT22;3625;51.762;14.320;2023-04-01T02:57:06;9.50;99.90
7167;DHT22;3625;51.762;14.320;2023-04-01T02:59:35;9.50;99.90
7167;DHT22;3625;51.762;14.320;2023-04-01T03:02:04;9.60;99.90
7167;DHT22;3625;51.762;14.320;2023-04-01T03:04:33;9.60;99.90
7167;DHT22;3625;51.762;14.320;2023-04-01T03:07:02;9.60;99.90
7167;DHT22;3625;51.762;14.320;2023-04-01T03:09:32;9.60;99.90
7167;DHT22;3625;51.762;14.320;2023-04-01T03:12:00;9.60;99.90
7167;DHT22;3625;51.762;14.320;2023-04-01T03:14:33;9.60;99.90
7167;DHT22;3625;51.762;14.320;2023-04-01T03:17:02;9.60;99.90
7167;DHT22;3625;51.762;14.320;2023-04-01T03:19:30;9.60;99.90
7167;DHT22;3625;51.762;14.320;2023-04-01T03:22:03;9.50;99.90
7167;DHT22;3625;51.762;14.320;2023-04-01T03:24:33;9.50;99.90
7167;DHT22;3625;51.762;14.320;2023-04-01T03:27:01;9.50;99.90
7167;DHT22;3625;51.762;14.320;2023-04-01T03:34:28;9.50;99.90
7167;DHT22;3625;51.762;14.320;2023-04-01T03:36:56;9.50;99.90
7167;DHT22;3625;51.762;14.320;2023-04-01T03:39:26;9.50;99.90
7167;DHT22;3625;51.762;14.320;2023-04-01T03:41:56;9.50;99.90
7167;DHT22;3625;51.762;14.320;2023-04-01T03:44:24;9.50;99.90
7167;DHT22;3625;51.762;14.320;2023-04-01T03:46:56;9.50;99.90
7167;DHT22;3625;51.762;14.320;2023-04-01T03:49:24;9.50;99.90
7167;DHT22;3625;51.762;14.320;2023-04-01T03:51:53;9.50;99.90
7167;DHT22;3625;51.762;14.320;2023-04-01T03:56:50;9.50;99.90
7167;DHT22;3625;51.762;14.320;2023-04-01T03:59:20;9.50;99.90
7167;DHT22;3625;51.762;14.320;2023-04-01T04:01:49;9.50;99.90
7167;DHT22;3625;51.762;14.320;2023-04-01T04:04:18;9.50;99.90
7167;DHT22;3625;51.762;14.320;2023-04-01T04:11:47;9.50;99.90
7167;DHT22;3625;51.762;14.320;2023-04-01T04:14:16;9.50;99.90
7167;DHT22;3625;51.762;14.320;2023-04-01T04:16:47;9.50;99.90
7167;DHT22;3625;51.762;14.320;2023-04-01T04:19:16;9.50;99.90
7167;DHT22;3625;51.762;14.320;2023-04-01T04:21:44;9.40;99.90
7167;DHT22;3625;51.762;14.320;2023-04-01T04:24:15;9.50;99.90
7167;DHT22;3625;51.762;14.320;2023-04-01T04:26:57;8.50;99.90
7167;DHT22;3625;51.762;14.320;2023-04-01T04:29:26;9.40;99.90
7167;DHT22;3625;51.762;14.320;2023-04-01T04:31:56;9.40;99.90
7167;DHT22;3625;51.762;14.320;2023-04-01T04:36:56;9.40;99.90
7167;DHT22;3625;51.762;14.320;2023-04-01T04:39:29;9.50;99.90
7167;DHT22;3625;51.762;14.320;2023-04-01T04:41:58;9.50;99.90
7167;DHT22;3625;51.762;14.320;2023-04-01T04:44:28;9.50;99.90
7167;DHT22;3625;51.762;14.320;2023-04-01T04:47:02;9.50;99.90
7167;DHT22;3625;51.762;14.320;2023-04-01T04:49:31;9.60;99.90
7167;DHT22;3625;51.762;14.320;2023-04-01T04:52:05;9.40;99.90
7167;DHT22;3625;51.762;14.320;2023-04-01T04:54:34;9.40;99.90
7167;DHT22;3625;51.762;14.320;2023-04-01T04:57:03;9.40;99.90
7167;DHT22;3625;51.762;14.320;2023-04-01T04:59:39;9.40;99.90
7167;DHT22;3625;51.762;14.320;2023-04-01T05:02:35;9.50;99.90
7167;DHT22;3625;51.762;14.320;2023-04-01T05:05:05;9.50;99.90
7167;DHT22;3625;51.762;14.320;2023-04-01T05:10:04;9.60;99.90
7167;DHT22;3625;51.762;14.320;2023-04-01T05:12:33;9.60;99.90
7167;DHT22;3625;51.762;14.320;2023-04-01T05:15:06;9.60;99.90
7167;DHT22;3625;51.762;14.320;2023-04-01T05:17:38;9.70;99.90
7167;DHT22;3625;51.762;14.320;2023-04-01T05:20:08;9.60;99.90
7167;DHT22;3625;51.762;14.320;2023-04-01T05:22:40;9.80;99.90
7167;DHT22;3625;51.762;14.320;2023-04-01T05:25:09;9.80;99.90
7167;DHT22;3625;51.762;14.320;2023-04-01T05:27:38;9.90;99.90
7167;DHT22;3625;51.762;14.320;2023-04-01T05:30:07;9.90;99.90
7167;DHT22;3625;51.762;14.320;2023-04-01T05:32:53;10.00;99.90
7167;DHT22;3625;51.762;14.320;2023-04-01T05:35:24;10.20;99.90
7167;DHT22;3625;51.762;14.320;2023-04-01T05:37:52;10.20;99.90
7167;DHT22;3625;51.762;14.320;2023-04-01T05:40:21;10.40;99.90
7167;DHT22;3625;51.762;14.320;2023-04-01T05:45:19;10.60;99.90
7167;DHT22;3625;51.762;14.320;2023-04-01T05:48:07;10.70;99.90
7167;DHT22;3625;51.762;14.320;2023-04-01T05:50:40;10.80;99.90
7167;DHT22;3625;51.762;14.320;2023-04-01T05:53:10;10.90;99.90
7167;DHT22;3625;51.762;14.320;2023-04-01T05:55:42;10.90;99.90
7167;DHT22;3625;51.762;14.320;2023-04-01T05:58:13;10.90;99.90
7167;DHT22;3625;51.762;14.320;2023-04-01T06:00:46;11.00;99.90
7167;DHT22;3625;51.762;14.320;2023-04-01T06:03:30;11.20;99.90
7167;DHT22;3625;51.762;14.320;2023-04-01T06:08:30;11.40;99.90
7167;DHT22;3625;51.762;14.320;2023-04-01T06:11:10;11.50;99.90
7167;DHT22;3625;51.762;14.320;2023-04-01T06:13:59;11.60;99.90
7167;DHT22;3625;51.762;14.320;2023-04-01T06:16:49;10.80;99.90
7167;DHT22;3625;51.762;14.320;2023-04-01T06:19:41;11.50;99.90
7167;DHT22;3625;51.762;14.320;2023-04-01T06:22:27;11.70;99.90
7167;DHT22;3625;51.762;14.320;2023-04-01T06:25:36;11.70;99.90
7167;DHT22;3625;51.762;14.320;2023-04-01T06:31:56;11.90;99.90
7167;DHT22;3625;51.762;14.320;2023-04-01T06:35:16;12.20;99.90
7167;DHT22;3625;51.762;14.320;2023-04-01T06:38:19;12.40;99.90
7167;DHT22;3625;51.762;14.320;2023-04-01T06:41:21;12.40;99.90
7167;DHT22;3625;51.762;14.320;2023-04-01T06:44:22;12.40;99.90
7167;DHT22;3625;51.762;14.320;2023-04-01T06:47:27;12.30;99.90
7167;DHT22;3625;51.762;14.320;2023-04-01T06:50:51;12.30;99.90
7167;DHT22;3625;51.762;14.320;2023-04-01T06:53:47;12.30;99.90
7167;DHT22;3625;51.762;14.320;2023-04-01T06:56:44;12.20;99.90
7167;DHT22;3625;51.762;14.320;2023-04-01T06:59:25;12.20;99.90
7167;DHT22;3625;51.762;14.320;2023-04-01T07:01:59;12.30;99.90
7167;DHT22;3625;51.762;14.320;2023-04-01T07:04:36;12.30;99.90
7167;DHT22;3625;51.762;14.320;2023-04-01T07:07:15;12.30;99.90
7167;DHT22;3625;51.762;14.320;2023-04-01T07:09:57;12.70;99.90
7167;DHT22;3625;51.762;14.320;2023-04-01T07:12:37;13.00;99.90
7167;DHT22;3625;51.762;14.320;2023-04-01T07:15:34;13.20;99.90
7167;DHT22;3625;51.762;14.320;2023-04-01T07:18:16;13.30;99.90
7167;DHT22;3625;51.762;14.320;2023-04-01T07:20:49;14.60;99.90
7167;DHT22;3625;51.762;14.320;2023-04-01T07:23:24;13.60;99.90
7167;DHT22;3625;51.762;14.320;2023-04-01T07:26:15;13.50;99.90
7167;DHT22;3625;51.762;14.320;2023-04-01T07:29:09;13.70;99.90
7167;DHT22;3625;51.762;14.320;2023-04-01T07:32:27;14.00;99.90
7167;DHT22;3625;51.762;14.320;2023-04-01T07:35:13;14.40;99.90
7167;DHT22;3625;51.762;14.320;2023-04-01T07:38:08;14.80;99.90
7167;DHT22;3625;51.762;14.320;2023-04-01T07:40:49;14.80;99.90
7167;DHT22;3625;51.762;14.320;2023-04-01T07:43:39;14.60;99.90
7167;DHT22;3625;51.762;14.320;2023-04-01T07:46:38;14.30;99.90
7167;DHT22;3625;51.762;14.320;2023-04-01T07:49:21;13.50;99.90
7167;DHT22;3625;51.762;14.320;2023-04-01T07:52:01;13.30;99.90
7167;DHT22;3625;51.762;14.320;2023-04-01T07:54:42;13.20;99.90
7167;DHT22;3625;51.762;14.320;2023-04-01T07:57:22;13.00;99.90
7167;DHT22;3625;51.762;14.320;2023-04-01T07:59:59;12.90;99.90
7167;DHT22;3625;51.762;14.320;2023-04-01T08:03:16;12.60;99.90
7167;DHT22;3625;51.762;14.320;2023-04-01T08:06:11;12.70;99.90
7167;DHT22;3625;51.762;14.320;2023-04-01T08:08:56;13.20;99.90
7167;DHT22;3625;51.762;14.320;2023-04-01T08:11:46;13.40;99.90
7167;DHT22;3625;51.762;14.320;2023-04-01T08:14:52;13.60;99.90
7167;DHT22;3625;51.762;14.320;2023-04-01T08:18:10;13.80;99.90
7167;DHT22;3625;51.762;14.320;2023-04-01T08:20:52;13.70;99.90
7167;DHT22;3625;51.762;14.320;2023-04-01T08:23:28;13.80;99.90
7167;DHT22;3625;51.762;14.320;2023-04-01T08:26:04;14.00;99.90
7167;DHT22;3625;51.762;14.320;2023-04-01T08:28:43;14.10;99.90
7167;DHT22;3625;51.762;14.320;2023-04-01T08:31:23;14.00;99.90
7167;DHT22;3625;51.762;14.320;2023-04-01T08:34:00;14.20;99.90
7167;DHT22;3625;51.762;14.320;2023-04-01T08:36:36;13.90;99.90
7167;DHT22;3625;51.762;14.320;2023-04-01T08:39:15;13.70;99.90
7167;DHT22;3625;51.762;14.320;2023-04-01T08:42:24;14.10;99.90
7167;DHT22;3625;51.762;14.320;2023-04-01T08:45:23;14.60;99.90
7167;DHT22;3625;51.762;14.320;2023-04-01T08:48:22;14.60;99.90
7167;DHT22;3625;51.762;14.320;2023-04-01T08:51:37;15.00;99.90
7167;DHT22;3625;51.762;14.320;2023-04-01T08:58:30;14.50;99.90
7167;DHT22;3625;51.762;14.320;2023-04-01T09:01:26;14.80;99.90
7167;DHT22;3625;51.762;14.320;2023-04-01T09:04:37;14.70;99.90
7167;DHT22;3625;51.762;14.320;2023-04-01T09:07:31;15.50;99.90
7167;DHT22;3625;51.762;14.320;2023-04-01T09:14:29;15.10;99.90
7167;DHT22;3625;51.762;14.320;2023-04-01T09:17:47;14.20;99.90
7167;DHT22;3625;51.762;14.320;2023-04-01T09:21:07;13.60;99.90
7167;DHT22;3625;51.762;14.320;2023-04-01T09:27:18;13.00;99.90
7167;DHT22;3625;51.762;14.320;2023-04-01T09:30:27;12.50;99.90
7167;DHT22;3625;51.762;14.320;2023-04-01T09:33:32;12.10;99.90
7167;DHT22;3625;51.762;14.320;2023-04-01T09:36:45;11.90;99.90
7167;DHT22;3625;51.762;14.320;2023-04-01T09:39:34;11.90;99.90
7167;DHT22;3625;51.762;14.320;2023-04-01T09:42:34;12.10;99.90
7167;DHT22;3625;51.762;14.320;2023-04-01T09:45:41;12.30;99.90
7167;DHT22;3625;51.762;14.320;2023-04-01T09:48:35;12.60;99.90
7167;DHT22;3625;51.762;14.320;2023-04-01T09:51:26;13.10;99.90
7167;DHT22;3625;51.762;14.320;2023-04-01T09:54:25;13.10;99.90
7167;DHT22;3625;51.762;14.320;2023-04-01T09:57:33;12.70;99.90
7167;DHT22;3625;51.762;14.320;2023-04-01T10:04:33;12.70;99.90
7167;DHT22;3625;51.762;14.320;2023-04-01T10:07:54;12.60;99.90
7167;DHT22;3625;51.762;14.320;2023-04-01T10:11:06;12.90;99.90
7167;DHT22;3625;51.762;14.320;2023-04-01T10:14:26;13.20;99.90
7167;DHT22;3625;51.762;14.320;2023-04-01T10:21:19;13.30;99.90
7167;DHT22;3625;51.762;14.320;2023-04-01T10:27:39;13.70;99.90
7167;DHT22;3625;51.762;14.320;2023-04-01T10:31:14;14.30;99.90
7167;DHT22;3625;51.762;14.320;2023-04-01T10:34:27;14.80;1.00
7167;DHT22;3625;51.762;14.320;2023-04-01T10:37:23;15.20;1.00
7167;DHT22;3625;51.762;14.320;2023-04-01T10:40:35;15.40;1.00
7167;DHT22;3625;51.762;14.320;2023-04-01T10:47:28;16.80;1.00
7167;DHT22;3625;51.762;14.320;2023-04-01T10:53:46;18.20;1.00
7167;DHT22;3625;51.762;14.320;2023-04-01T10:57:10;17.30;99.90
7167;DHT22;3625;51.762;14.320;2023-04-01T11:00:55;16.60;99.90
7167;DHT22;3625;51.762;14.320;2023-04-01T11:08:11;15.60;99.90
7167;DHT22;3625;51.762;14.320;2023-04-01T11:15:06;16.00;1.00
7167;DHT22;3625;51.762;14.320;2023-04-01T11:32:02;17.50;1.00
7167;DHT22;3625;51.762;14.320;2023-04-01T11:34:59;17.40;99.90
7167;DHT22;3625;51.762;14.320;2023-04-01T11:37:50;16.90;1.00
7167;DHT22;3625;51.762;14.320;2023-04-01T11:40:56;17.20;1.00
7167;DHT22;3625;51.762;14.320;2023-04-01T11:44:12;16.80;1.00
7167;DHT22;3625;51.762;14.320;2023-04-01T11:47:30;17.20;99.90
7167;DHT22;3625;51.762;14.320;2023-04-01T11:50:24;17.60;99.90
7167;DHT22;3625;51.762;14.320;2023-04-01T11:53:21;18.10;99.90
7167;DHT22;3625;51.762;14.320;2023-04-01T11:56:07;18.60;99.90
7167;DHT22;3625;51.762;14.320;2023-04-01T11:58:58;19.00;99.90
7167;DHT22;3625;51.762;14.320;2023-04-01T12:01:57;19.40;99.90
7167;DHT22;3625;51.762;14.320;2023-04-01T12:04:55;19.80;99.90
7167;DHT22;3625;51.762;14.320;2023-04-01T12:08:00;19.90;99.90
7167;DHT22;3625;51.762;14.320;2023-04-01T12:10:40;19.00;99.90
7167;DHT22;3625;51.762;14.320;2023-04-01T12:13:34;17.80;99.90
7167;DHT22;3625;51.762;14.320;2023-04-01T12:16:19;17.70;99.90
7167;DHT22;3625;51.762;14.320;2023-04-01T12:19:03;17.40;99.90
7167;DHT22;3625;51.762;14.320;2023-04-01T12:21:43;17.90;99.90
7167;DHT22;3625;51.762;14.320;2023-04-01T12:24:52;16.80;99.90
7167;DHT22;3625;51.762;14.320;2023-04-01T12:27:50;16.50;99.90
7167;DHT22;3625;51.762;14.320;2023-04-01T12:30:47;16.30;99.90
7167;DHT22;3625;51.762;14.320;2023-04-01T12:33:54;16.20;8.40
7167;DHT22;3625;51.762;14.320;2023-04-01T12:36:42;16.30;1.00
7167;DHT22;3625;51.762;14.320;2023-04-01T12:39:38;16.40;99.90
7167;DHT22;3625;51.762;14.320;2023-04-01T12:42:35;16.60;1.00
7167;DHT22;3625;51.762;14.320;2023-04-01T12:45:23;16.90;99.90
7167;DHT22;3625;51.762;14.320;2023-04-01T12:48:19;17.40;99.90
7167;DHT22;3625;51.762;14.320;2023-04-01T12:55:03;17.80;99.90
7167;DHT22;3625;51.762;14.320;2023-04-01T13:01:30;18.30;99.90
7167;DHT22;3625;51.762;14.320;2023-04-01T13:04:35;18.10;99.90
7167;DHT22;3625;51.762;14.320;2023-04-01T13:07:57;17.00;99.90
7167;DHT22;3625;51.762;14.320;2023-04-01T13:10:58;15.60;99.90
7167;DHT22;3625;51.762;14.320;2023-04-01T13:13:56;14.70;99.90
7167;DHT22;3625;51.762;14.320;2023-04-01T13:16:59;14.10;99.90
7167;DHT22;3625;51.762;14.320;2023-04-01T13:19:40;13.50;99.90
7167;DHT22;3625;51.762;14.320;2023-04-01T13:22:42;13.30;99.90
7167;DHT22;3625;51.762;14.320;2023-04-01T13:25:25;13.30;99.90
7167;DHT22;3625;51.762;14.320;2023-04-01T13:28:10;13.30;99.90
7167;DHT22;3625;51.762;14.320;2023-04-01T13:30:49;13.00;99.90
7167;DHT22;3625;51.762;14.320;2023-04-01T13:33:32;13.00;99.90
7167;DHT22;3625;51.762;14.320;2023-04-01T13:36:13;13.10;99.90
7167;DHT22;3625;51.762;14.320;2023-04-01T13:39:10;13.50;99.90
7167;DHT22;3625;51.762;14.320;2023-04-01T13:41:59;13.50;99.90
7167;DHT22;3625;51.762;14.320;2023-04-01T13:44:42;14.30;99.90
7167;DHT22;3625;51.762;14.320;2023-04-01T13:51:15;13.80;99.90
7167;DHT22;3625;51.762;14.320;2023-04-01T13:54:05;13.80;99.90
7167;DHT22;3625;51.762;14.320;2023-04-01T13:56:50;13.60;99.90
7167;DHT22;3625;51.762;14.320;2023-04-01T13:59:42;14.00;99.90
7167;DHT22;3625;51.762;14.320;2023-04-01T14:02:55;14.30;99.90
7167;DHT22;3625;51.762;14.320;2023-04-01T14:05:55;14.70;99.90
7167;DHT22;3625;51.762;14.320;2023-04-01T14:08:47;15.20;99.90
7167;DHT22;3625;51.762;14.320;2023-04-01T14:11:35;15.80;99.90
7167;DHT22;3625;51.762;14.320;2023-04-01T14:14:21;15.80;99.90
7167;DHT22;3625;51.762;14.320;2023-04-01T14:17:17;15.70;99.90
7167;DHT22;3625;51.762;14.320;2023-04-01T14:20:25;15.50;99.90
7167;DHT22;3625;51.762;14.320;2023-04-01T14:23:20;15.30;99.90
7167;DHT22;3625;51.762;14.320;2023-04-01T14:26:13;15.00;99.90
7167;DHT22;3625;51.762;14.320;2023-04-01T14:29:14;14.80;99.90
7167;DHT22;3625;51.762;14.320;2023-04-01T14:31:58;14.70;99.90
7167;DHT22;3625;51.762;14.320;2023-04-01T14:34:45;14.90;99.90
7167;DHT22;3625;51.762;14.320;2023-04-01T14:37:58;14.90;99.90
7167;DHT22;3625;51.762;14.320;2023-04-01T14:40:55;15.00;99.90
7167;DHT22;3625;51.762;14.320;2023-04-01T14:47:11;15.30;99.90
7167;DHT22;3625;51.762;14.320;2023-04-01T14:49:56;15.10;99.90
7167;DHT22;3625;51.762;14.320;2023-04-01T14:52:36;14.50;99.90
7167;DHT22;3625;51.762;14.320;2023-04-01T14:55:20;14.10;99.90
7167;DHT22;3625;51.762;14.320;2023-04-01T14:58:10;13.70;99.90
7167;DHT22;3625;51.762;14.320;2023-04-01T15:01:07;13.60;99.90
7167;DHT22;3625;51.762;14.320;2023-04-01T15:03:51;13.40;99.90
7167;DHT22;3625;51.762;14.320;2023-04-01T15:06:39;13.20;99.90
7167;DHT22;3625;51.762;14.320;2023-04-01T15:09:21;13.10;99.90
7167;DHT22;3625;51.762;14.320;2023-04-01T15:12:10;13.00;99.90
7167;DHT22;3625;51.762;14.320;2023-04-01T15:15:11;13.00;99.90
7167;DHT22;3625;51.762;14.320;2023-04-01T15:18:03;12.80;99.90
7167;DHT22;3625;51.762;14.320;2023-04-01T15:23:49;12.40;99.90
7167;DHT22;3625;51.762;14.320;2023-04-01T15:26:46;12.20;99.90
7167;DHT22;3625;51.762;14.320;2023-04-01T15:29:44;12.10;99.90
7167;DHT22;3625;51.762;14.320;2023-04-01T15:32:45;12.00;99.90
7167;DHT22;3625;51.762;14.320;2023-04-01T15:35:32;11.90;99.90
7167;DHT22;3625;51.762;14.320;2023-04-01T15:38:15;11.80;99.90
7167;DHT22;3625;51.762;14.320;2023-04-01T15:41:00;11.80;99.90
7167;DHT22;3625;51.762;14.320;2023-04-01T15:43:41;11.60;99.90
7167;DHT22;3625;51.762;14.320;2023-04-01T15:46:36;11.50;99.90
7167;DHT22;3625;51.762;14.320;2023-04-01T15:49:21;11.40;99.90
7167;DHT22;3625;51.762;14.320;2023-04-01T15:52:13;11.40;99.90
7167;DHT22;3625;51.762;14.320;2023-04-01T15:55:00;11.30;99.90
7167;DHT22;3625;51.762;14.320;2023-04-01T15:57:54;11.20;99.90
7167;DHT22;3625;51.762;14.320;2023-04-01T16:00:45;11.10;99.90
7167;DHT22;3625;51.762;14.320;2023-04-01T16:03:33;11.10;99.90
7167;DHT22;3625;51.762;14.320;2023-04-01T16:06:18;11.10;99.90
7167;DHT22;3625;51.762;14.320;2023-04-01T16:09:17;11.10;99.90
7167;DHT22;3625;51.762;14.320;2023-04-01T16:12:04;11.10;99.90
7167;DHT22;3625;51.762;14.320;2023-04-01T16:14:49;11.00;99.90
7167;DHT22;3625;51.762;14.320;2023-04-01T16:17:48;11.00;99.90
7167;DHT22;3625;51.762;14.320;2023-04-01T16:20:43;10.90;99.90
7167;DHT22;3625;51.762;14.320;2023-04-01T16:23:24;10.70;99.90
7167;DHT22;3625;51.762;14.320;2023-04-01T16:26:07;10.70;99.90
7167;DHT22;3625;51.762;14.320;2023-04-01T16:28:44;10.60;99.90
7167;DHT22;3625;51.762;14.320;2023-04-01T16:31:32;10.60;99.90
7167;DHT22;3625;51.762;14.320;2023-04-01T16:34:10;10.50;99.90
7167;DHT22;3625;51.762;14.320;2023-04-01T16:36:47;10.20;99.90
7167;DHT22;3625;51.762;14.320;2023-04-01T16:39:34;10.10;99.90
7167;DHT22;3625;51.762;14.320;2023-04-01T16:42:22;10.00;99.90
7167;DHT22;3625;51.762;14.320;2023-04-01T16:45:06;9.80;99.90
7167;DHT22;3625;51.762;14.320;2023-04-01T16:47:51;9.80;99.90
7167;DHT22;3625;51.762;14.320;2023-04-01T16:50:26;9.70;99.90
7167;DHT22;3625;51.762;14.320;2023-04-01T16:53:14;9.60;99.90
7167;DHT22;3625;51.762;14.320;2023-04-01T16:55:50;9.60;99.90
7167;DHT22;3625;51.762;14.320;2023-04-01T16:58:34;9.50;99.90
7167;DHT22;3625;51.762;14.320;2023-04-01T17:01:08;9.40;99.90
7167;DHT22;3625;51.762;14.320;2023-04-01T17:03:44;9.40;99.90
7167;DHT22;3625;51.762;14.320;2023-04-01T17:06:24;9.30;99.90
7167;DHT22;3625;51.762;14.320;2023-04-01T17:09:18;9.30;99.90
7167;DHT22;3625;51.762;14.320;2023-04-01T17:12:05;9.20;99.90
7167;DHT22;3625;51.762;14.320;2023-04-01T17:14:46;9.10;99.90
7167;DHT22;3625;51.762;14.320;2023-04-01T17:17:34;9.00;99.90
7167;DHT22;3625;51.762;14.320;2023-04-01T17:20:27;9.00;99.90
7167;DHT22;3625;51.762;14.320;2023-04-01T17:23:13;8.80;99.90
7167;DHT22;3625;51.762;14.320;2023-04-01T17:26:07;8.80;99.90
7167;DHT22;3625;51.762;14.320;2023-04-01T17:28:50;8.80;99.90
7167;DHT22;3625;51.762;14.320;2023-04-01T17:31:37;8.70;99.90
7167;DHT22;3625;51.762;14.320;2023-04-01T17:34:38;8.60;99.90
7167;DHT22;3625;51.762;14.320;2023-04-01T17:37:27;8.80;99.90
7167;DHT22;3625;51.762;14.320;2023-04-01T17:40:37;8.50;99.90
7167;DHT22;3625;51.762;14.320;2023-04-01T17:43:28;8.40;99.90
7167;DHT22;3625;51.762;14.320;2023-04-01T17:46:11;8.40;99.90
7167;DHT22;3625;51.762;14.320;2023-04-01T17:49:02;8.40;99.90
7167;DHT22;3625;51.762;14.320;2023-04-01T17:51:49;8.40;99.90
7167;DHT22;3625;51.762;14.320;2023-04-01T17:54:30;8.40;99.90
7167;DHT22;3625;51.762;14.320;2023-04-01T17:57:24;8.30;99.90
7167;DHT22;3625;51.762;14.320;2023-04-01T18:00:02;8.30;99.90
7167;DHT22;3625;51.762;14.320;2023-04-01T18:02:49;8.30;99.90
7167;DHT22;3625;51.762;14.320;2023-04-01T18:05:33;8.30;99.90
7167;DHT22;3625;51.762;14.320;2023-04-01T18:08:16;8.20;99.90
7167;DHT22;3625;51.762;14.320;2023-04-01T18:11:04;8.20;99.90
7167;DHT22;3625;51.762;14.320;2023-04-01T18:17:12;8.10;99.90
7167;DHT22;3625;51.762;14.320;2023-04-01T18:20:08;8.10;99.90
7167;DHT22;3625;51.762;14.320;2023-04-01T18:22:56;8.10;99.90
7167;DHT22;3625;51.762;14.320;2023-04-01T18:25:33;8.10;99.90
7167;DHT22;3625;51.762;14.320;2023-04-01T18:28:22;8.10;99.90
7167;DHT22;3625;51.762;14.320;2023-04-01T18:31:06;8.10;99.90
7167;DHT22;3625;51.762;14.320;2023-04-01T18:33:54;8.10;99.90
7167;DHT22;3625;51.762;14.320;2023-04-01T18:36:38;8.10;99.90
7167;DHT22;3625;51.762;14.320;2023-04-01T18:39:15;8.10;99.90
7167;DHT22;3625;51.762;14.320;2023-04-01T18:42:03;8.10;99.90
7167;DHT22;3625;51.762;14.320;2023-04-01T18:44:47;8.10;99.90
7167;DHT22;3625;51.762;14.320;2023-04-01T18:47:25;8.10;99.90
7167;DHT22;3625;51.762;14.320;2023-04-01T18:50:18;7.00;99.90
7167;DHT22;3625;51.762;14.320;2023-04-01T18:52:58;8.00;99.90
7167;DHT22;3625;51.762;14.320;2023-04-01T18:55:40;8.00;99.90
7167;DHT22;3625;51.762;14.320;2023-04-01T18:58:22;8.00;99.90
7167;DHT22;3625;51.762;14.320;2023-04-01T19:01:12;8.00;99.90
7167;DHT22;3625;51.762;14.320;2023-04-01T19:03:55;7.90;99.90
7167;DHT22;3625;51.762;14.320;2023-04-01T19:06:34;8.00;99.90
7167;DHT22;3625;51.762;14.320;2023-04-01T19:09:20;7.90;99.90
7167;DHT22;3625;51.762;14.320;2023-04-01T19:15:22;7.90;99.90
7167;DHT22;3625;51.762;14.320;2023-04-01T19:18:34;7.80;99.90
7167;DHT22;3625;51.762;14.320;2023-04-01T19:21:18;7.90;99.90
7167;DHT22;3625;51.762;14.320;2023-04-01T19:27:01;7.80;99.90
7167;DHT22;3625;51.762;14.320;2023-04-01T19:29:48;7.80;99.90
7167;DHT22;3625;51.762;14.320;2023-04-01T19:32:37;7.80;99.90
7167;DHT22;3625;51.762;14.320;2023-04-01T19:35:24;7.80;99.90
7167;DHT22;3625;51.762;14.320;2023-04-01T19:38:04;7.80;99.90
7167;DHT22;3625;51.762;14.320;2023-04-01T19:40:48;7.80;99.90
7167;DHT22;3625;51.762;14.320;2023-04-01T19:43:44;7.80;99.90